sensor_id;sensor_type;location;lat;lon;timestamp;pressure;altitude;pressure_sealevel;temperature;humidity
72921;BME280;61064;51.654;5.476;2023-09-07T00:02:22;101929.69;;;20.20;77.90
72921;BME280;61064;51.654;5.476;2023-09-07T00:04:47;101932.41;;;20.19;78.24
72921;BME280;61064;51.654;5.476;2023-09-07T00:07:12;101927.13;;;20.13;78.15
72921;BME280;61064;51.654;5.476;2023-09-07T00:09:38;101920.03;;;20.06;78.18
72921;BME280;61064;51.654;5.476;2023-09-07T00:12:03;101920.06;;;20.03;78.21
72921;BME280;61064;51.654;5.476;2023-09-07T00:14:28;101920.97;;;20.02;78.33
72921;BME280;61064;51.654;5.476;2023-09-07T00:16:54;101918.38;;;19.96;78.77
72921;BME280;61064;51.654;5.476;2023-09-07T00:19:19;101921.13;;;19.92;78.48
72921;BME280;61064;51.654;5.476;2023-09-07T00:21:44;101915.81;;;19.88;78.30
72921;BME280;61064;51.654;5.476;2023-09-07T00:24:10;101916.72;;;19.85;78.80
72921;BME280;61064;51.654;5.476;2023-09-07T00:26:35;101911.41;;;19.79;78.93
72921;BME280;61064;51.654;5.476;2023-09-07T00:29:00;101918.66;;;19.77;79.11
72921;BME280;61064;51.654;5.476;2023-09-07T00:31:26;101915.09;;;19.74;79.27
72921;BME280;61064;51.654;5.476;2023-09-07T00:33:51;101912.44;;;19.71;79.47
72921;BME280;61064;51.654;5.476;2023-09-07T00:36:18;101900.78;;;19.69;79.62
72921;BME280;61064;51.654;5.476;2023-09-07T00:38:43;101908.88;;;19.67;79.51
72921;BME280;61064;51.654;5.476;2023-09-07T00:41:09;101901.75;;;19.62;79.47
72921;BME280;61064;51.654;5.476;2023-09-07T00:43:34;101908.13;;;19.59;79.78
72921;BME280;61064;51.654;5.476;2023-09-07T00:45:59;101904.53;;;19.57;79.68
72921;BME280;61064;51.654;5.476;2023-09-07T00:48:25;101905.44;;;19.56;79.67
72921;BME280;61064;51.654;5.476;2023-09-07T00:50:50;101910.00;;;19.52;79.79
72921;BME280;61064;51.654;5.476;2023-09-07T00:53:16;101894.78;;;19.47;79.92
72921;BME280;61064;51.654;5.476;2023-09-07T00:55:44;101911.84;;;19.49;79.90
72921;BME280;61064;51.654;5.476;2023-09-07T00:58:09;101911.84;;;19.49;79.81
72921;BME280;61064;51.654;5.476;2023-09-07T01:00:36;101905.59;;;19.45;80.04
72921;BME280;61064;51.654;5.476;2023-09-07T01:03:03;101905.59;;;19.45;79.79
72921;BME280;61064;51.654;5.476;2023-09-07T01:06:02;101898.41;;;19.43;79.77
72921;BME280;61064;51.654;5.476;2023-09-07T01:08:49;101911.03;;;19.39;79.67
72921;BME280;61064;51.654;5.476;2023-09-07T01:11:19;101910.16;;;19.39;79.73
72921;BME280;61064;51.654;5.476;2023-09-07T01:13:51;101894.06;;;19.30;79.86
72921;BME280;61064;51.654;5.476;2023-09-07T01:16:19;101905.69;;;19.35;79.98
72921;BME280;61064;51.654;5.476;2023-09-07T01:18:46;101908.47;;;19.30;79.99
72921;BME280;61064;51.654;5.476;2023-09-07T01:21:13;101909.38;;;19.29;80.23
72921;BME280;61064;51.654;5.476;2023-09-07T01:23:42;101901.31;;;19.26;80.28
72921;BME280;61064;51.654;5.476;2023-09-07T01:26:09;101910.31;;;19.25;80.26
72921;BME280;61064;51.654;5.476;2023-09-07T01:28:35;101904.09;;;19.22;80.28
72921;BME280;61064;51.654;5.476;2023-09-07T01:31:03;101906.78;;;19.22;80.46
72921;BME280;61064;51.654;5.476;2023-09-07T01:33:31;101901.47;;;19.16;80.46
72921;BME280;61064;51.654;5.476;2023-09-07T01:36:00;101905.06;;;19.13;80.66
72921;BME280;61064;51.654;5.476;2023-09-07T01:38:25;101896.13;;;19.09;80.75
72921;BME280;61064;51.654;5.476;2023-09-07T01:40:50;101901.53;;;19.08;80.83
72921;BME280;61064;51.654;5.476;2023-09-07T01:43:16;101895.34;;;19.00;80.80
72921;BME280;61064;51.654;5.476;2023-09-07T01:45:41;101894.47;;;18.95;80.83
72921;BME280;61064;51.654;5.476;2023-09-07T01:48:11;101889.19;;;18.89;81.21
72921;BME280;61064;51.654;5.476;2023-09-07T01:50:37;101893.69;;;18.87;81.23
72921;BME280;61064;51.654;5.476;2023-09-07T01:53:03;101900.00;;;18.86;81.36
72921;BME280;61064;51.654;5.476;2023-09-07T01:55:30;101905.38;;;18.86;81.44
72921;BME280;61064;51.654;5.476;2023-09-07T01:57:55;101897.34;;;18.83;81.29
72921;BME280;61064;51.654;5.476;2023-09-07T02:00:20;101893.75;;;18.81;81.24
72921;BME280;61064;51.654;5.476;2023-09-07T02:02:46;101889.31;;;18.77;81.40
72921;BME280;61064;51.654;5.476;2023-09-07T02:05:11;101895.63;;;18.76;81.45
72921;BME280;61064;51.654;5.476;2023-09-07T02:07:37;101893.81;;;18.73;81.26
72921;BME280;61064;51.654;5.476;2023-09-07T02:10:03;101893.88;;;18.70;81.53
72921;BME280;61064;51.654;5.476;2023-09-07T02:12:28;101893.03;;;18.66;81.37
72921;BME280;61064;51.654;5.476;2023-09-07T02:14:55;101899.31;;;18.64;81.46
72921;BME280;61064;51.654;5.476;2023-09-07T02:17:20;101891.28;;;18.59;81.54
72921;BME280;61064;51.654;5.476;2023-09-07T02:19:46;101901.22;;;18.54;81.67
72921;BME280;61064;51.654;5.476;2023-09-07T02:22:11;101903.00;;;18.51;81.90
72921;BME280;61064;51.654;5.476;2023-09-07T02:24:37;101893.16;;;18.45;82.04
72921;BME280;61064;51.654;5.476;2023-09-07T02:27:02;101894.13;;;18.43;81.97
72921;BME280;61064;51.654;5.476;2023-09-07T02:29:28;101898.59;;;18.41;82.09
72921;BME280;61064;51.654;5.476;2023-09-07T02:31:53;101896.84;;;18.38;82.15
72921;BME280;61064;51.654;5.476;2023-09-07T02:34:19;101889.69;;;18.34;82.14
72921;BME280;61064;51.654;5.476;2023-09-07T02:36:44;101894.22;;;18.32;82.29
72921;BME280;61064;51.654;5.476;2023-09-07T02:39:10;101891.53;;;18.31;82.46
72921;BME280;61064;51.654;5.476;2023-09-07T02:41:37;101888.81;;;18.29;82.44
72921;BME280;61064;51.654;5.476;2023-09-07T02:44:04;101891.56;;;18.26;82.49
72921;BME280;61064;51.654;5.476;2023-09-07T02:46:29;101897.84;;;18.25;82.56
72921;BME280;61064;51.654;5.476;2023-09-07T02:48:56;101890.69;;;18.22;82.53
72921;BME280;61064;51.654;5.476;2023-09-07T02:51:23;101891.63;;;18.17;82.55
72921;BME280;61064;51.654;5.476;2023-09-07T02:53:48;101891.66;;;18.14;82.70
72921;BME280;61064;51.654;5.476;2023-09-07T02:56:14;101900.63;;;18.13;82.61
72921;BME280;61064;51.654;5.476;2023-09-07T02:58:39;101889.00;;;18.09;82.72
72921;BME280;61064;51.654;5.476;2023-09-07T03:01:08;101889.91;;;18.08;82.49
72921;BME280;61064;51.654;5.476;2023-09-07T03:03:37;101898.00;;;18.07;82.72
72921;BME280;61064;51.654;5.476;2023-09-07T03:06:13;101880.97;;;18.03;82.83
72921;BME280;61064;51.654;5.476;2023-09-07T03:08:43;101888.16;;;18.03;82.91
72921;BME280;61064;51.654;5.476;2023-09-07T03:11:08;101883.66;;;18.00;82.97
72921;BME280;61064;51.654;5.476;2023-09-07T03:13:34;101885.50;;;18.00;82.91
72921;BME280;61064;51.654;5.476;2023-09-07T03:16:00;101891.75;;;18.00;82.95
72921;BME280;61064;51.654;5.476;2023-09-07T03:18:26;101887.31;;;17.96;82.98
72921;BME280;61064;51.654;5.476;2023-09-07T03:20:53;101890.91;;;17.97;82.91
72921;BME280;61064;51.654;5.476;2023-09-07T03:23:19;101896.31;;;17.92;82.95
72921;BME280;61064;51.654;5.476;2023-09-07T03:25:44;101897.25;;;17.88;83.01
72921;BME280;61064;51.654;5.476;2023-09-07T03:28:10;101889.19;;;17.86;83.09
72921;BME280;61064;51.654;5.476;2023-09-07T03:30:35;101890.97;;;17.84;82.98
72921;BME280;61064;51.654;5.476;2023-09-07T03:33:01;101891.00;;;17.83;83.19
72921;BME280;61064;51.654;5.476;2023-09-07T03:35:28;101889.25;;;17.76;83.07
72921;BME280;61064;51.654;5.476;2023-09-07T03:37:56;101896.44;;;17.72;83.32
72921;BME280;61064;51.654;5.476;2023-09-07T03:40:22;101890.19;;;17.69;83.32
72921;BME280;61064;51.654;5.476;2023-09-07T03:42:47;101901.84;;;17.68;83.53
72921;BME280;61064;51.654;5.476;2023-09-07T03:45:13;101895.59;;;17.63;83.52
72921;BME280;61064;51.654;5.476;2023-09-07T03:47:38;101899.19;;;17.63;83.35
72921;BME280;61064;51.654;5.476;2023-09-07T03:50:04;101893.84;;;17.60;83.59
72921;BME280;61064;51.654;5.476;2023-09-07T03:52:29;101911.75;;;17.63;83.34
72921;BME280;61064;51.654;5.476;2023-09-07T03:54:56;101912.66;;;17.62;83.64
72921;BME280;61064;51.654;5.476;2023-09-07T03:57:21;101900.09;;;17.58;83.61
72921;BME280;61064;51.654;5.476;2023-09-07T03:59:50;101899.19;;;17.59;83.46
72921;BME280;61064;51.654;5.476;2023-09-07T04:02:16;101906.38;;;17.58;83.49
72921;BME280;61064;51.654;5.476;2023-09-07T04:04:49;101905.50;;;17.55;83.70
72921;BME280;61064;51.654;5.476;2023-09-07T04:07:15;101900.13;;;17.50;83.79
72921;BME280;61064;51.654;5.476;2023-09-07T04:09:41;101893.88;;;17.50;83.97
72921;BME280;61064;51.654;5.476;2023-09-07T04:12:07;101897.44;;;17.50;84.00
72921;BME280;61064;51.654;5.476;2023-09-07T04:14:33;101894.75;;;17.45;84.11
72921;BME280;61064;51.654;5.476;2023-09-07T04:16:58;101892.97;;;17.46;84.30
72921;BME280;61064;51.654;5.476;2023-09-07T04:19:24;101898.34;;;17.44;84.09
72921;BME280;61064;51.654;5.476;2023-09-07T04:21:49;101892.09;;;17.42;84.57
72921;BME280;61064;51.654;5.476;2023-09-07T04:24:15;101897.47;;;17.42;84.24
72921;BME280;61064;51.654;5.476;2023-09-07T04:26:40;101899.28;;;17.40;83.73
72921;BME280;61064;51.654;5.476;2023-09-07T04:29:07;101901.09;;;17.37;84.40
72921;BME280;61064;51.654;5.476;2023-09-07T04:31:35;101897.50;;;17.35;84.31
72921;BME280;61064;51.654;5.476;2023-09-07T04:34:00;101908.25;;;17.33;84.14
72921;BME280;61064;51.654;5.476;2023-09-07T04:36:28;101895.75;;;17.32;84.48
72921;BME280;61064;51.654;5.476;2023-09-07T04:38:53;101900.22;;;17.30;84.47
72921;BME280;61064;51.654;5.476;2023-09-07T04:41:18;101913.69;;;17.32;84.61
72921;BME280;61064;51.654;5.476;2023-09-07T04:43:44;101916.34;;;17.33;84.38
72921;BME280;61064;51.654;5.476;2023-09-07T04:46:10;101906.50;;;17.29;84.39
72921;BME280;61064;51.654;5.476;2023-09-07T04:48:36;101910.09;;;17.28;84.55
72921;BME280;61064;51.654;5.476;2023-09-07T04:51:04;101907.41;;;17.25;84.34
72921;BME280;61064;51.654;5.476;2023-09-07T04:53:31;101903.84;;;17.23;84.45
72921;BME280;61064;51.654;5.476;2023-09-07T04:55:57;101907.41;;;17.24;84.45
72921;BME280;61064;51.654;5.476;2023-09-07T04:58:23;101911.03;;;17.21;84.49
72921;BME280;61064;51.654;5.476;2023-09-07T05:00:48;101903.84;;;17.19;84.46
72921;BME280;61064;51.654;5.476;2023-09-07T05:03:15;101902.09;;;17.15;84.75
72921;BME280;61064;51.654;5.476;2023-09-07T05:05:41;101911.06;;;17.15;84.68
72921;BME280;61064;51.654;5.476;2023-09-07T05:08:07;101914.63;;;17.13;84.60
72921;BME280;61064;51.654;5.476;2023-09-07T05:10:33;101916.44;;;17.12;84.83
72921;BME280;61064;51.654;5.476;2023-09-07T05:12:59;101910.16;;;17.13;84.82
72921;BME280;61064;51.654;5.476;2023-09-07T05:15:24;101914.63;;;17.11;84.78
72921;BME280;61064;51.654;5.476;2023-09-07T05:17:52;101912.88;;;17.09;84.81
72921;BME280;61064;51.654;5.476;2023-09-07T05:20:17;101916.44;;;17.06;84.76
72921;BME280;61064;51.654;5.476;2023-09-07T05:22:43;101930.78;;;17.08;84.76
72921;BME280;61064;51.654;5.476;2023-09-07T05:25:09;101925.44;;;17.05;84.83
72921;BME280;61064;51.654;5.476;2023-09-07T05:27:35;101922.75;;;17.05;84.72
72921;BME280;61064;51.654;5.476;2023-09-07T05:30:01;101921.84;;;17.03;84.80
72921;BME280;61064;51.654;5.476;2023-09-07T05:32:26;101920.94;;;17.02;84.62
72921;BME280;61064;51.654;5.476;2023-09-07T05:34:51;101927.22;;;17.01;84.94
72921;BME280;61064;51.654;5.476;2023-09-07T05:37:17;101929.03;;;16.99;84.97
72921;BME280;61064;51.654;5.476;2023-09-07T05:39:42;101944.25;;;17.00;84.92
72921;BME280;61064;51.654;5.476;2023-09-07T05:42:07;101936.19;;;16.97;85.33
72921;BME280;61064;51.654;5.476;2023-09-07T05:44:33;101938.88;;;17.00;85.47
72921;BME280;61064;51.654;5.476;2023-09-07T05:46:58;101939.78;;;17.04;85.64
72921;BME280;61064;51.654;5.476;2023-09-07T05:49:24;101937.97;;;17.01;85.56
72921;BME280;61064;51.654;5.476;2023-09-07T05:51:49;101929.03;;;16.99;85.89
72921;BME280;61064;51.654;5.476;2023-09-07T05:54:15;101941.53;;;17.07;86.27
72921;BME280;61064;51.654;5.476;2023-09-07T05:56:40;101921.84;;;17.03;86.36
72921;BME280;61064;51.654;5.476;2023-09-07T05:59:05;101939.75;;;17.16;86.53
72921;BME280;61064;51.654;5.476;2023-09-07T06:01:31;101943.31;;;17.21;86.74
72921;BME280;61064;51.654;5.476;2023-09-07T06:03:57;101940.59;;;17.26;86.85
72921;BME280;61064;51.654;5.476;2023-09-07T06:06:23;101940.56;;;17.32;86.95
72921;BME280;61064;51.654;5.476;2023-09-07T06:08:48;101951.28;;;17.42;87.23
72921;BME280;61064;51.654;5.476;2023-09-07T06:11:14;101953.94;;;17.50;87.26
72921;BME280;61064;51.654;5.476;2023-09-07T06:13:39;101953.00;;;17.56;87.18
72921;BME280;61064;51.654;5.476;2023-09-07T06:16:05;101963.78;;;17.65;87.47
72921;BME280;61064;51.654;5.476;2023-09-07T06:18:30;101961.03;;;17.74;87.21
72921;BME280;61064;51.654;5.476;2023-09-07T06:20:55;101961.88;;;17.85;87.23
72921;BME280;61064;51.654;5.476;2023-09-07T06:23:21;101957.34;;;17.93;87.25
72921;BME280;61064;51.654;5.476;2023-09-07T06:25:46;101964.44;;;18.06;87.24
72921;BME280;61064;51.654;5.476;2023-09-07T06:28:12;101966.16;;;18.18;87.12
72921;BME280;61064;51.654;5.476;2023-09-07T06:30:38;101972.34;;;18.31;86.85
72921;BME280;61064;51.654;5.476;2023-09-07T06:33:03;101964.19;;;18.43;86.63
72921;BME280;61064;51.654;5.476;2023-09-07T06:35:29;101970.38;;;18.58;86.64
72921;BME280;61064;51.654;5.476;2023-09-07T06:37:54;101963.03;;;18.73;86.15
72921;BME280;61064;51.654;5.476;2023-09-07T06:40:21;101966.53;;;18.84;85.79
72921;BME280;61064;51.654;5.476;2023-09-07T06:42:47;101965.50;;;18.98;85.67
72921;BME280;61064;51.654;5.476;2023-09-07T06:45:13;101964.44;;;19.11;85.41
72921;BME280;61064;51.654;5.476;2023-09-07T06:47:38;101963.38;;;19.26;85.18
72921;BME280;61064;51.654;5.476;2023-09-07T06:50:05;101970.38;;;19.42;84.89
72921;BME280;61064;51.654;5.476;2023-09-07T06:52:32;101965.72;;;19.57;84.35
72921;BME280;61064;51.654;5.476;2023-09-07T06:54:58;101968.22;;;19.73;83.98
72921;BME280;61064;51.654;5.476;2023-09-07T06:57:24;101961.69;;;19.89;83.58
72921;BME280;61064;51.654;5.476;2023-09-07T06:59:49;101967.78;;;20.04;83.20
72921;BME280;61064;51.654;5.476;2023-09-07T07:02:15;101970.25;;;20.17;82.58
72921;BME280;61064;51.654;5.476;2023-09-07T07:04:40;101959.25;;;20.31;82.03
72921;BME280;61064;51.654;5.476;2023-09-07T07:07:05;101958.19;;;20.44;81.81
72921;BME280;61064;51.654;5.476;2023-09-07T07:09:31;101962.44;;;20.59;81.08
72921;BME280;61064;51.654;5.476;2023-09-07T07:12:03;101965.84;;;20.70;80.69
72921;BME280;61064;51.654;5.476;2023-09-07T07:14:28;101964.75;;;20.82;80.22
72921;BME280;61064;51.654;5.476;2023-09-07T07:16:53;101970.78;;;20.96;80.13
72921;BME280;61064;51.654;5.476;2023-09-07T07:19:19;101971.41;;;21.11;79.81
72921;BME280;61064;51.654;5.476;2023-09-07T07:21:44;101968.44;;;21.27;79.44
72921;BME280;61064;51.654;5.476;2023-09-07T07:24:10;101968.09;;;21.42;78.81
72921;BME280;61064;51.654;5.476;2023-09-07T07:26:35;101972.34;;;21.56;78.67
72921;BME280;61064;51.654;5.476;2023-09-07T07:29:02;101970.22;;;21.71;78.34
72921;BME280;61064;51.654;5.476;2023-09-07T07:31:29;101968.91;;;21.88;77.63
72921;BME280;61064;51.654;5.476;2023-09-07T07:33:56;101961.38;;;22.03;77.12
72921;BME280;61064;51.654;5.476;2023-09-07T07:36:22;101969.22;;;22.16;76.56
72921;BME280;61064;51.654;5.476;2023-09-07T07:38:48;101972.53;;;22.29;76.23
72921;BME280;61064;51.654;5.476;2023-09-07T07:41:13;101963.16;;;22.40;75.81
72921;BME280;61064;51.654;5.476;2023-09-07T07:43:39;101961.91;;;22.55;75.42
72921;BME280;61064;51.654;5.476;2023-09-07T07:46:04;101966.06;;;22.71;74.91
72921;BME280;61064;51.654;5.476;2023-09-07T07:48:29;101968.38;;;22.85;74.33
72921;BME280;61064;51.654;5.476;2023-09-07T07:50:55;101967.16;;;22.97;73.71
72921;BME280;61064;51.654;5.476;2023-09-07T07:53:21;101963.16;;;23.11;73.30
72921;BME280;61064;51.654;5.476;2023-09-07T07:55:46;101968.19;;;23.25;73.06
72921;BME280;61064;51.654;5.476;2023-09-07T07:58:13;101954.31;;;23.36;72.57
72921;BME280;61064;51.654;5.476;2023-09-07T08:00:39;101947.66;;;23.47;71.85
72921;BME280;61064;51.654;5.476;2023-09-07T08:03:06;101952.69;;;23.61;71.34
72921;BME280;61064;51.654;5.476;2023-09-07T08:05:33;101953.13;;;23.77;70.87
72921;BME280;61064;51.654;5.476;2023-09-07T08:07:58;101952.75;;;23.89;70.95
72921;BME280;61064;51.654;5.476;2023-09-07T08:10:24;101951.47;;;24.00;70.08
72921;BME280;61064;51.654;5.476;2023-09-07T08:12:57;101955.63;;;24.12;69.40
72921;BME280;61064;51.654;5.476;2023-09-07T08:15:22;101945.34;;;24.23;69.19
72921;BME280;61064;51.654;5.476;2023-09-07T08:17:50;101942.19;;;24.35;68.50
72921;BME280;61064;51.654;5.476;2023-09-07T08:20:16;101941.00;;;24.44;67.96
72921;BME280;61064;51.654;5.476;2023-09-07T08:22:41;101939.00;;;24.49;67.90
72921;BME280;61064;51.654;5.476;2023-09-07T08:25:11;101934.94;;;24.62;67.20
72921;BME280;61064;51.654;5.476;2023-09-07T08:27:41;101927.34;;;24.72;66.96
72921;BME280;61064;51.654;5.476;2023-09-07T08:30:16;101907.94;;;24.81;66.38
72921;BME280;61064;51.654;5.476;2023-09-07T08:32:43;101920.25;;;24.93;66.29
72921;BME280;61064;51.654;5.476;2023-09-07T08:35:10;101914.38;;;25.05;66.06
72921;BME280;61064;51.654;5.476;2023-09-07T08:37:41;101912.16;;;25.16;65.57
72921;BME280;61064;51.654;5.476;2023-09-07T08:40:07;101920.41;;;25.38;64.99
72921;BME280;61064;51.654;5.476;2023-09-07T08:42:35;101922.63;;;25.51;64.44
72921;BME280;61064;51.654;5.476;2023-09-07T08:45:02;101913.09;;;25.63;63.52
72921;BME280;61064;51.654;5.476;2023-09-07T08:47:28;101916.31;;;25.74;63.65
72921;BME280;61064;51.654;5.476;2023-09-07T08:49:57;101914.16;;;25.82;62.92
72921;BME280;61064;51.654;5.476;2023-09-07T08:52:22;101911.94;;;25.92;62.44
72921;BME280;61064;51.654;5.476;2023-09-07T08:54:48;101906.91;;;26.03;61.98
72921;BME280;61064;51.654;5.476;2023-09-07T08:57:14;101913.91;;;26.10;61.31
72921;BME280;61064;51.654;5.476;2023-09-07T08:59:40;101897.34;;;26.15;61.07
72921;BME280;61064;51.654;5.476;2023-09-07T09:02:09;101896.94;;;26.25;60.92
72921;BME280;61064;51.654;5.476;2023-09-07T09:04:36;101899.09;;;26.39;60.50
72921;BME280;61064;51.654;5.476;2023-09-07T09:07:02;101900.25;;;26.54;60.27
72921;BME280;61064;51.654;5.476;2023-09-07T09:09:33;101900.63;;;26.66;59.80
72921;BME280;61064;51.654;5.476;2023-09-07T09:12:11;101903.72;;;26.79;59.23
72921;BME280;61064;51.654;5.476;2023-09-07T09:14:38;101905.94;;;26.91;59.01
72921;BME280;61064;51.654;5.476;2023-09-07T09:17:04;101910.03;;;27.01;58.41
72921;BME280;61064;51.654;5.476;2023-09-07T09:19:33;101908.94;;;27.05;58.04
72921;BME280;61064;51.654;5.476;2023-09-07T09:22:00;101902.16;;;27.14;57.77
72921;BME280;61064;51.654;5.476;2023-09-07T09:24:25;101914.34;;;27.25;57.67
72921;BME280;61064;51.654;5.476;2023-09-07T09:26:52;101894.00;;;27.33;57.46
72921;BME280;61064;51.654;5.476;2023-09-07T09:29:21;101893.66;;;27.40;56.80
72921;BME280;61064;51.654;5.476;2023-09-07T09:31:47;101890.53;;;27.48;56.91
72921;BME280;61064;51.654;5.476;2023-09-07T09:34:13;101895.56;;;27.58;56.60
72921;BME280;61064;51.654;5.476;2023-09-07T09:36:41;101894.28;;;27.65;56.50
72921;BME280;61064;51.654;5.476;2023-09-07T09:39:07;101890.34;;;27.71;56.18
72921;BME280;61064;51.654;5.476;2023-09-07T09:41:35;101887.19;;;27.80;56.09
72921;BME280;61064;51.654;5.476;2023-09-07T09:44:02;101887.69;;;27.88;55.92
72921;BME280;61064;51.654;5.476;2023-09-07T09:46:28;101880.66;;;28.01;55.23
72921;BME280;61064;51.654;5.476;2023-09-07T09:48:57;101882.66;;;28.17;54.90
72921;BME280;61064;51.654;5.476;2023-09-07T09:51:24;101883.88;;;28.28;54.72
72921;BME280;61064;51.654;5.476;2023-09-07T09:53:51;101878.03;;;28.36;54.42
72921;BME280;61064;51.654;5.476;2023-09-07T09:56:18;101882.06;;;28.46;54.37
72921;BME280;61064;51.654;5.476;2023-09-07T09:58:45;101883.16;;;28.59;54.00
72921;BME280;61064;51.654;5.476;2023-09-07T10:01:11;101873.44;;;28.71;53.70
72921;BME280;61064;51.654;5.476;2023-09-07T10:03:42;101883.84;;;28.81;53.83
72921;BME280;61064;51.654;5.476;2023-09-07T10:06:37;101874.97;;;28.93;53.19
72921;BME280;61064;51.654;5.476;2023-09-07T10:09:06;101880.69;;;29.06;52.45
72921;BME280;61064;51.654;5.476;2023-09-07T10:11:35;101880.28;;;29.14;52.34
72921;BME280;61064;51.654;5.476;2023-09-07T10:14:03;101875.19;;;29.23;52.68
72921;BME280;61064;51.654;5.476;2023-09-07T10:16:40;101869.13;;;29.34;52.30
72921;BME280;61064;51.654;5.476;2023-09-07T10:19:17;101872.06;;;29.47;51.72
72921;BME280;61064;51.654;5.476;2023-09-07T10:21:43;101871.63;;;29.54;51.19
72921;BME280;61064;51.654;5.476;2023-09-07T10:24:09;101865.03;;;29.58;51.17
72921;BME280;61064;51.654;5.476;2023-09-07T10:26:34;101867.31;;;29.66;51.00
72921;BME280;61064;51.654;5.476;2023-09-07T10:29:01;101870.44;;;29.75;50.87
72921;BME280;61064;51.654;5.476;2023-09-07T10:31:29;101865.38;;;29.84;50.45
72921;BME280;61064;51.654;5.476;2023-09-07T10:33:56;101864.78;;;29.94;50.55
72921;BME280;61064;51.654;5.476;2023-09-07T10:36:27;101870.88;;;29.99;50.33
72921;BME280;61064;51.654;5.476;2023-09-07T10:38:55;101862.22;;;30.07;50.01
72921;BME280;61064;51.654;5.476;2023-09-07T10:41:21;101865.28;;;30.16;50.06
72921;BME280;61064;51.654;5.476;2023-09-07T10:43:48;101867.59;;;30.24;49.57
72921;BME280;61064;51.654;5.476;2023-09-07T10:46:14;101849.56;;;30.34;49.14
72921;BME280;61064;51.654;5.476;2023-09-07T10:48:40;101848.31;;;30.40;49.35
72921;BME280;61064;51.654;5.476;2023-09-07T10:51:07;101852.31;;;30.50;49.13
72921;BME280;61064;51.654;5.476;2023-09-07T10:53:32;101846.94;;;30.63;48.76
72921;BME280;61064;51.654;5.476;2023-09-07T10:56:04;101847.34;;;30.71;48.18
72921;BME280;61064;51.654;5.476;2023-09-07T10:58:35;101849.47;;;30.81;47.76
72921;BME280;61064;51.654;5.476;2023-09-07T11:01:01;101844.72;;;30.83;47.48
72921;BME280;61064;51.654;5.476;2023-09-07T11:03:30;101839.81;;;30.88;47.46
72921;BME280;61064;51.654;5.476;2023-09-07T11:06:02;101828.28;;;30.97;47.82
72921;BME280;61064;51.654;5.476;2023-09-07T11:08:31;101831.25;;;31.09;46.77
72921;BME280;61064;51.654;5.476;2023-09-07T11:10:58;101829.09;;;31.14;46.50
72921;BME280;61064;51.654;5.476;2023-09-07T11:13:24;101836.25;;;31.16;46.27
72921;BME280;61064;51.654;5.476;2023-09-07T11:15:53;101830.75;;;31.16;46.08
72921;BME280;61064;51.654;5.476;2023-09-07T11:18:22;101830.56;;;31.19;45.79
72921;BME280;61064;51.654;5.476;2023-09-07T11:20:49;101823.97;;;31.22;45.90
72921;BME280;61064;51.654;5.476;2023-09-07T11:23:16;101819.03;;;31.27;46.41
72921;BME280;61064;51.654;5.476;2023-09-07T11:25:41;101825.63;;;31.38;46.10
72921;BME280;61064;51.654;5.476;2023-09-07T11:28:09;101817.69;;;31.48;45.43
72921;BME280;61064;51.654;5.476;2023-09-07T11:30:37;101827.38;;;31.54;45.34
72921;BME280;61064;51.654;5.476;2023-09-07T11:33:15;101822.06;;;31.51;45.23
72921;BME280;61064;51.654;5.476;2023-09-07T11:35:40;101823.94;;;31.50;45.14
72921;BME280;61064;51.654;5.476;2023-09-07T11:38:06;101818.25;;;31.53;44.57
72921;BME280;61064;51.654;5.476;2023-09-07T11:40:35;101813.06;;;31.49;44.48
72921;BME280;61064;51.654;5.476;2023-09-07T11:43:00;101821.72;;;31.43;44.29
72921;BME280;61064;51.654;5.476;2023-09-07T11:45:26;101829.75;;;31.46;44.55
72921;BME280;61064;51.654;5.476;2023-09-07T11:47:52;101820.31;;;31.50;43.84
72921;BME280;61064;51.654;5.476;2023-09-07T11:50:17;101812.75;;;31.53;43.86
72921;BME280;61064;51.654;5.476;2023-09-07T11:52:43;101818.91;;;31.57;43.89
72921;BME280;61064;51.654;5.476;2023-09-07T11:55:09;101802.84;;;31.65;43.72
72921;BME280;61064;51.654;5.476;2023-09-07T11:57:38;101810.56;;;31.72;43.37
72921;BME280;61064;51.654;5.476;2023-09-07T12:00:04;101806.50;;;31.78;43.71
72921;BME280;61064;51.654;5.476;2023-09-07T12:02:30;101810.63;;;31.85;43.83
72921;BME280;61064;51.654;5.476;2023-09-07T12:04:55;101807.38;;;31.93;42.82
72921;BME280;61064;51.654;5.476;2023-09-07T12:07:21;101811.66;;;31.97;42.69
72921;BME280;61064;51.654;5.476;2023-09-07T12:09:47;101808.25;;;31.93;42.81
72921;BME280;61064;51.654;5.476;2023-09-07T12:12:13;101799.09;;;31.93;42.69
72921;BME280;61064;51.654;5.476;2023-09-07T12:14:39;101795.25;;;31.95;42.16
72921;BME280;61064;51.654;5.476;2023-09-07T12:17:04;101797.03;;;31.96;42.72
72921;BME280;61064;51.654;5.476;2023-09-07T12:19:29;101791.97;;;32.03;43.00
72921;BME280;61064;51.654;5.476;2023-09-07T12:21:55;101789.69;;;32.09;42.40
72921;BME280;61064;51.654;5.476;2023-09-07T12:24:20;101779.44;;;32.11;42.51
72921;BME280;61064;51.654;5.476;2023-09-07T12:26:45;101792.25;;;32.12;42.50
72921;BME280;61064;51.654;5.476;2023-09-07T12:29:11;101785.88;;;32.12;42.27
72921;BME280;61064;51.654;5.476;2023-09-07T12:31:36;101786.31;;;32.18;43.04
72921;BME280;61064;51.654;5.476;2023-09-07T12:34:02;101774.66;;;32.28;42.31
72921;BME280;61064;51.654;5.476;2023-09-07T12:36:27;101777.78;;;32.36;42.79
72921;BME280;61064;51.654;5.476;2023-09-07T12:38:55;101775.91;;;32.36;42.62
72921;BME280;61064;51.654;5.476;2023-09-07T12:41:22;101776.09;;;32.33;42.58
72921;BME280;61064;51.654;5.476;2023-09-07T12:43:48;101777.00;;;32.34;42.54
72921;BME280;61064;51.654;5.476;2023-09-07T12:46:13;101774.13;;;32.35;42.44
72921;BME280;61064;51.654;5.476;2023-09-07T12:48:40;101766.66;;;32.37;42.09